Terminal Aerodrome Forecast
Issued by NWS Wichita, KS

Home | Current Version | Previous Version | Graphics & Text | Print | Product List | Glossary On
Versions: 1 2 3 4 5 6 7 8 9 10 11 12 13 14 15 16 17 18 19 20 21 22 23 24 25
235
FTUS43 KICT 261740
TAFICT
TAF
KICT 261740Z 2618/2718 20015G22KT P6SM SCT030 BKN045
     FM262000 19015G23KT P6SM VCTS BKN045CB
     FM270600 20010KT P6SM SCT150=

USA.gov is the U.S. government's official web portal to all federal, state and local government web resources and services.